createdAt,value
2019-02-28T00:00:10.365Z,6.40
2019-02-28T00:01:11.697Z,7.00
2019-02-28T00:02:10.320Z,6.30
2019-02-28T00:03:10.311Z,6.20
2019-02-28T00:04:10.317Z,6.60
2019-02-28T00:05:10.287Z,6.10
2019-02-28T00:06:12.549Z,6.40
2019-02-28T00:07:10.277Z,7.00
2019-02-28T00:08:10.287Z,7.50
2019-02-28T00:09:10.241Z,7.20
2019-02-28T00:10:10.283Z,7.30
2019-02-28T00:11:10.239Z,7.50
2019-02-28T00:12:13.541Z,7.70
2019-02-28T00:13:10.256Z,7.90
2019-02-28T00:14:10.264Z,7.80
2019-02-28T00:15:10.179Z,8.00
2019-02-28T00:16:10.190Z,8.10
2019-02-28T00:17:10.183Z,7.50
2019-02-28T00:18:10.173Z,8.40
2019-02-28T00:19:10.138Z,8.00
2019-02-28T00:20:10.137Z,8.20
2019-02-28T00:21:10.125Z,7.50
2019-02-28T00:22:11.330Z,7.90
2019-02-28T00:23:10.111Z,7.20
2019-02-28T00:24:10.077Z,7.30
2019-02-28T00:25:10.093Z,7.60
2019-02-28T00:26:11.643Z,7.40
2019-02-28T00:27:10.062Z,7.90
2019-02-28T00:28:10.031Z,7.30
2019-02-28T00:29:10.035Z,8.40
2019-02-28T00:30:10.043Z,7.80
2019-02-28T00:31:14.384Z,8.40
2019-02-28T00:32:11.005Z,8.50
2019-02-28T00:33:10.004Z,8.20
2019-02-28T00:34:09.972Z,8.80
2019-02-28T00:35:13.116Z,8.20
2019-02-28T00:36:09.977Z,8.10
2019-02-28T00:37:09.961Z,7.90
2019-02-28T00:38:09.939Z,7.80
2019-02-28T00:39:09.931Z,8.40
2019-02-28T00:40:09.970Z,8.50
2019-02-28T00:41:10.243Z,8.30
2019-02-28T00:42:09.902Z,8.00
2019-02-28T00:43:09.893Z,8.40
2019-02-28T00:44:09.868Z,8.00
2019-02-28T00:45:09.865Z,8.30
2019-02-28T00:46:10.804Z,8.50
2019-02-28T00:47:09.848Z,8.40
2019-02-28T00:48:09.821Z,8.60
2019-02-28T00:49:09.833Z,8.40
2019-02-28T00:50:09.795Z,8.80
2019-02-28T00:51:09.814Z,8.50
2019-02-28T00:52:09.786Z,8.00
2019-02-28T00:53:09.781Z,7.90
2019-02-28T00:54:09.790Z,8.90
2019-02-28T00:55:09.745Z,8.50
2019-02-28T00:56:09.755Z,8.80
2019-02-28T00:57:09.752Z,8.50
2019-02-28T00:58:09.709Z,8.30
2019-02-28T00:59:09.704Z,8.90
2019-02-28T01:00:09.701Z,9.00
2019-02-28T01:01:11.597Z,8.60
2019-02-28T01:02:09.672Z,8.30
2019-02-28T01:03:09.668Z,8.80
2019-02-28T01:04:09.654Z,8.50
2019-02-28T01:05:09.663Z,8.80
2019-02-28T01:06:10.501Z,9.20
2019-02-28T01:07:09.611Z,9.30
2019-02-28T01:08:09.603Z,9.50
2019-02-28T01:09:09.590Z,8.70
2019-02-28T01:10:09.610Z,9.50
2019-02-28T01:11:10.341Z,9.70
2019-02-28T01:12:09.582Z,9.00
2019-02-28T01:13:09.545Z,9.90
2019-02-28T01:14:09.536Z,8.70
2019-02-28T01:15:10.060Z,9.00
2019-02-28T01:16:09.549Z,9.30
2019-02-28T01:17:09.518Z,9.30
2019-02-28T01:18:09.510Z,9.10
2019-02-28T01:19:10.185Z,8.90
2019-02-28T01:20:14.982Z,9.30
2019-02-28T01:21:10.455Z,8.80
2019-02-28T01:22:09.490Z,8.60
2019-02-28T01:23:09.463Z,9.60
2019-02-28T01:24:09.430Z,8.70
2019-02-28T01:25:09.458Z,8.80
2019-02-28T01:26:11.739Z,9.30
2019-02-28T01:27:09.396Z,9.30
2019-02-28T01:28:09.399Z,8.40
2019-02-28T01:29:09.388Z,9.10
2019-02-28T01:30:09.371Z,9.30
2019-02-28T01:31:11.655Z,9.20
2019-02-28T01:32:09.336Z,9.00
2019-02-28T01:33:09.346Z,9.20
2019-02-28T01:34:09.333Z,9.70
2019-02-28T01:35:09.313Z,9.60
2019-02-28T01:36:12.246Z,8.90
2019-02-28T01:37:10.287Z,9.50
2019-02-28T01:38:09.301Z,8.90
2019-02-28T01:39:09.272Z,9.10
2019-02-28T01:40:09.267Z,9.60
2019-02-28T01:41:11.205Z,9.30
2019-02-28T01:42:09.239Z,9.60
2019-02-28T01:43:09.228Z,9.80
2019-02-28T01:44:09.220Z,9.70
2019-02-28T01:45:09.936Z,10.10
2019-02-28T01:46:09.208Z,9.80
2019-02-28T01:47:09.216Z,9.20
2019-02-28T01:48:09.182Z,9.70
2019-02-28T01:49:09.168Z,9.60
2019-02-28T01:50:09.158Z,9.50
2019-02-28T01:51:09.140Z,9.70
2019-02-28T01:52:10.164Z,10.00
2019-02-28T01:53:09.126Z,9.60
2019-02-28T01:54:09.097Z,9.40
2019-02-28T01:55:09.095Z,9.60
2019-02-28T01:56:09.108Z,9.90
2019-02-28T01:57:10.039Z,9.10
2019-02-28T01:58:09.067Z,11.00
2019-02-28T01:59:09.043Z,10.00
2019-02-28T02:00:09.036Z,9.50
2019-02-28T02:01:09.026Z,8.70
2019-02-28T02:02:09.045Z,9.60
2019-02-28T02:03:09.492Z,10.00
2019-02-28T02:04:08.992Z,9.90
2019-02-28T02:05:08.985Z,9.90
2019-02-28T02:06:08.971Z,10.10
2019-02-28T02:07:08.972Z,9.80
2019-02-28T02:08:08.967Z,10.80
2019-02-28T02:09:11.029Z,9.50
2019-02-28T02:10:08.941Z,9.80
2019-02-28T02:11:08.940Z,10.20
2019-02-28T02:12:08.961Z,10.20
2019-02-28T02:13:08.887Z,10.40
2019-02-28T02:14:11.092Z,9.70
2019-02-28T02:15:08.875Z,11.00
2019-02-28T02:16:08.865Z,10.30
2019-02-28T02:17:08.879Z,10.60
2019-02-28T02:18:09.485Z,10.40
2019-02-28T02:19:08.846Z,11.00
2019-02-28T02:20:08.832Z,10.40
2019-02-28T02:21:08.823Z,10.70
2019-02-28T02:22:09.502Z,10.70
2019-02-28T02:23:08.790Z,11.10
2019-02-28T02:24:08.816Z,10.50
2019-02-28T02:25:08.769Z,10.60
2019-02-28T02:26:11.297Z,10.10
2019-02-28T02:27:08.761Z,9.90
2019-02-28T02:28:08.736Z,10.10
2019-02-28T02:29:08.722Z,10.50
2019-02-28T02:30:13.290Z,10.00
2019-02-28T02:31:09.723Z,10.30
2019-02-28T02:32:08.686Z,10.70
2019-02-28T02:33:13.606Z,10.20
2019-02-28T02:34:09.672Z,9.60
2019-02-28T02:35:08.659Z,10.70
2019-02-28T02:36:08.662Z,9.80
2019-02-28T02:37:08.637Z,11.40
2019-02-28T02:38:08.624Z,10.70
2019-02-28T02:39:08.616Z,10.80
2019-02-28T02:40:08.606Z,10.80
2019-02-28T02:41:08.626Z,10.30
2019-02-28T02:42:11.380Z,11.80
2019-02-28T02:43:08.582Z,11.30
2019-02-28T02:44:08.554Z,11.40
2019-02-28T02:45:08.567Z,10.40
2019-02-28T02:46:08.538Z,10.40
2019-02-28T02:47:08.544Z,10.90
2019-02-28T02:48:08.537Z,9.90
2019-02-28T02:49:08.516Z,10.70
2019-02-28T02:50:08.496Z,11.00
2019-02-28T02:51:10.996Z,11.30
2019-02-28T02:52:08.475Z,10.70
2019-02-28T02:53:08.491Z,10.50
2019-02-28T02:54:08.449Z,10.90
2019-02-28T02:55:08.487Z,11.00
2019-02-28T02:56:08.453Z,10.90
2019-02-28T02:57:08.461Z,10.90
2019-02-28T02:58:08.428Z,11.20
2019-02-28T02:59:08.415Z,10.80
2019-02-28T03:00:13.363Z,10.60
2019-02-28T03:01:09.386Z,11.30
2019-02-28T03:02:08.368Z,10.50
2019-02-28T03:03:08.354Z,10.50
2019-02-28T03:04:08.349Z,10.30
2019-02-28T03:05:08.345Z,10.80
2019-02-28T03:06:12.103Z,10.00
2019-02-28T03:07:09.317Z,9.60
2019-02-28T03:08:08.309Z,10.60
2019-02-28T03:09:10.013Z,9.60
2019-02-28T03:10:08.291Z,10.30
2019-02-28T03:11:08.277Z,9.70
2019-02-28T03:12:08.267Z,9.30
2019-02-28T03:13:08.273Z,8.70
2019-02-28T03:14:08.273Z,9.70
2019-02-28T03:15:08.225Z,9.10
2019-02-28T03:16:08.216Z,9.20
2019-02-28T03:17:11.540Z,9.60
2019-02-28T03:18:08.222Z,9.40
2019-02-28T03:19:08.193Z,9.50
2019-02-28T03:20:08.870Z,9.10
2019-02-28T03:21:08.159Z,9.20
2019-02-28T03:22:08.165Z,8.20
2019-02-28T03:23:08.169Z,9.20
2019-02-28T03:24:14.694Z,8.20
2019-02-28T03:25:09.120Z,10.20
2019-02-28T03:26:08.113Z,9.60
2019-02-28T03:27:08.098Z,9.60
2019-02-28T03:28:08.090Z,9.40
2019-02-28T03:29:08.985Z,9.30
2019-02-28T03:30:08.080Z,9.70
2019-02-28T03:31:14.168Z,9.60
2019-02-28T03:32:09.049Z,10.10
2019-02-28T03:33:08.050Z,9.40
2019-02-28T03:34:13.003Z,9.90
2019-02-28T03:35:09.025Z,9.60
2019-02-28T03:36:08.036Z,11.00
2019-02-28T03:37:08.028Z,10.70
2019-02-28T03:38:11.672Z,10.10
2019-02-28T03:39:07.985Z,9.70
2019-02-28T03:40:08.012Z,9.60
2019-02-28T03:41:07.959Z,10.00
2019-02-28T03:42:07.992Z,10.20
2019-02-28T03:43:07.927Z,10.40
2019-02-28T03:44:07.913Z,9.60
2019-02-28T03:45:07.902Z,9.80
2019-02-28T03:46:10.397Z,9.10
2019-02-28T03:47:07.884Z,8.60
2019-02-28T03:48:07.884Z,9.30
2019-02-28T03:49:11.549Z,9.00
2019-02-28T03:50:07.848Z,9.00
2019-02-28T03:51:07.860Z,8.90
2019-02-28T03:52:07.838Z,8.50
2019-02-28T03:53:07.813Z,8.30
2019-02-28T03:54:07.820Z,9.30
2019-02-28T03:55:07.795Z,8.50
2019-02-28T03:56:07.798Z,8.20
2019-02-28T03:57:07.783Z,8.50
2019-02-28T03:58:07.771Z,8.90
2019-02-28T03:59:07.754Z,8.70
2019-02-28T04:00:07.764Z,8.40
2019-02-28T04:01:09.453Z,8.50
2019-02-28T04:02:07.731Z,9.80
2019-02-28T04:03:07.723Z,8.50
2019-02-28T04:04:12.188Z,8.70
2019-02-28T04:05:07.732Z,8.50
2019-02-28T04:06:07.683Z,9.30
2019-02-28T04:07:07.655Z,9.20
2019-02-28T04:08:07.680Z,9.20
2019-02-28T04:09:08.900Z,9.80
2019-02-28T04:10:07.640Z,9.80
2019-02-28T04:11:07.640Z,9.80
2019-02-28T04:12:08.995Z,10.00
2019-02-28T04:13:07.589Z,9.90
2019-02-28T04:14:07.621Z,10.50
2019-02-28T04:15:10.173Z,9.70
2019-02-28T04:16:09.429Z,10.40
2019-02-28T04:17:07.556Z,10.30
2019-02-28T04:18:08.576Z,10.60
2019-02-28T04:19:07.540Z,10.50
2019-02-28T04:20:07.514Z,10.00
2019-02-28T04:21:10.309Z,10.40
2019-02-28T04:22:07.511Z,10.60
2019-02-28T04:23:07.532Z,11.20
2019-02-28T04:24:12.460Z,10.00
2019-02-28T04:25:08.460Z,10.40
2019-02-28T04:26:07.469Z,10.30
2019-02-28T04:27:07.916Z,11.10
2019-02-28T04:28:07.450Z,11.00
2019-02-28T04:29:07.428Z,10.10
2019-02-28T04:30:08.403Z,10.20
2019-02-28T04:31:07.416Z,10.60
2019-02-28T04:32:07.401Z,10.10
2019-02-28T04:33:07.401Z,10.70
2019-02-28T04:34:13.014Z,11.50
2019-02-28T04:35:08.389Z,10.50
2019-02-28T04:36:07.346Z,10.50
2019-02-28T04:37:08.586Z,10.00
2019-02-28T04:38:07.331Z,10.70
2019-02-28T04:39:07.323Z,10.10
2019-02-28T04:40:07.341Z,9.80
2019-02-28T04:41:07.292Z,10.80
2019-02-28T04:42:07.298Z,11.10
2019-02-28T04:43:10.008Z,10.70
2019-02-28T04:44:07.264Z,11.00
2019-02-28T04:45:07.266Z,11.10
2019-02-28T04:46:07.261Z,11.30
2019-02-28T04:47:07.662Z,12.80
2019-02-28T04:48:07.235Z,11.60
2019-02-28T04:49:07.217Z,11.10
2019-02-28T04:50:07.217Z,10.90
2019-02-28T04:51:07.180Z,11.70
2019-02-28T04:52:07.171Z,12.30
2019-02-28T04:53:07.209Z,13.00
2019-02-28T04:54:07.170Z,12.20
2019-02-28T04:55:07.174Z,12.60
2019-02-28T04:56:11.013Z,12.90
2019-02-28T04:57:07.134Z,13.10
2019-02-28T04:58:07.104Z,14.50
2019-02-28T04:59:07.117Z,14.50
2019-02-28T05:00:07.100Z,14.00
2019-02-28T05:01:09.258Z,14.00
2019-02-28T05:02:08.067Z,13.90
2019-02-28T05:03:07.057Z,14.20
2019-02-28T05:04:07.069Z,14.20
2019-02-28T05:05:12.205Z,13.70
2019-02-28T05:06:08.028Z,13.70
2019-02-28T05:07:07.063Z,13.70
2019-02-28T05:08:07.012Z,13.70
2019-02-28T05:09:07.019Z,14.20
2019-02-28T05:10:06.985Z,14.40
2019-02-28T05:11:06.963Z,14.00
2019-02-28T05:12:06.960Z,13.40
2019-02-28T05:13:06.978Z,13.70
2019-02-28T05:14:06.957Z,13.10
2019-02-28T05:15:06.959Z,13.60
2019-02-28T05:16:09.370Z,13.60
2019-02-28T05:17:07.910Z,12.30
2019-02-28T05:18:06.892Z,12.90
2019-02-28T05:19:06.903Z,13.00
2019-02-28T05:20:07.346Z,12.00
2019-02-28T05:21:06.886Z,12.10
2019-02-28T05:22:06.870Z,12.20
2019-02-28T05:23:06.842Z,13.30
2019-02-28T05:24:07.732Z,12.30
2019-02-28T05:25:06.824Z,12.20
2019-02-28T05:26:06.821Z,12.10
2019-02-28T05:27:06.802Z,12.40
2019-02-28T05:28:07.550Z,12.00
2019-02-28T05:29:06.794Z,12.20
2019-02-28T05:30:06.777Z,11.90
2019-02-28T05:31:06.770Z,12.30
2019-02-28T05:32:06.765Z,12.40
2019-02-28T05:33:07.461Z,12.00
2019-02-28T05:34:06.743Z,12.30
2019-02-28T05:35:06.740Z,11.90
2019-02-28T05:36:06.702Z,11.80
2019-02-28T05:37:12.268Z,12.90
2019-02-28T05:38:07.688Z,13.40
2019-02-28T05:39:06.673Z,13.70
2019-02-28T05:40:06.951Z,13.20
2019-02-28T05:41:06.669Z,12.60
2019-02-28T05:42:06.642Z,13.20
2019-02-28T05:43:06.631Z,13.40
2019-02-28T05:44:07.252Z,13.80
2019-02-28T05:45:06.604Z,13.50
2019-02-28T05:46:06.600Z,13.20
2019-02-28T05:47:06.599Z,13.60
2019-02-28T05:48:06.578Z,14.90
2019-02-28T05:49:08.689Z,13.10
2019-02-28T05:50:06.545Z,14.60
2019-02-28T05:51:06.545Z,14.70
2019-02-28T05:52:06.551Z,15.00
2019-02-28T05:53:09.289Z,15.30
2019-02-28T05:54:06.522Z,13.70
2019-02-28T05:55:06.498Z,15.90
2019-02-28T05:56:06.484Z,15.90
2019-02-28T05:57:08.060Z,15.70
2019-02-28T05:58:06.478Z,15.10
2019-02-28T05:59:06.459Z,17.10
2019-02-28T06:00:06.466Z,15.00
2019-02-28T06:01:08.687Z,15.90
2019-02-28T06:02:07.415Z,17.20
2019-02-28T06:03:06.427Z,15.10
2019-02-28T06:04:06.423Z,14.60
2019-02-28T06:05:08.379Z,14.60
2019-02-28T06:06:08.124Z,15.70
2019-02-28T06:07:06.365Z,15.10
2019-02-28T06:08:06.367Z,15.80
2019-02-28T06:09:06.347Z,15.70
2019-02-28T06:10:06.336Z,15.50
2019-02-28T06:11:06.337Z,14.90
2019-02-28T06:12:06.641Z,16.00
2019-02-28T06:13:06.329Z,16.20
2019-02-28T06:14:06.298Z,15.30
2019-02-28T06:15:06.279Z,15.30
2019-02-28T06:16:11.413Z,16.10
2019-02-28T06:17:07.265Z,16.10
2019-02-28T06:18:06.257Z,15.80
2019-02-28T06:19:08.365Z,15.50
2019-02-28T06:20:06.235Z,15.30
2019-02-28T06:21:06.217Z,16.20
2019-02-28T06:22:06.205Z,16.10
2019-02-28T06:23:09.111Z,16.60
2019-02-28T06:24:06.196Z,16.50
2019-02-28T06:25:06.199Z,16.70
2019-02-28T06:26:06.187Z,17.20
2019-02-28T06:27:06.648Z,17.30
2019-02-28T06:28:06.144Z,16.00
2019-02-28T06:29:06.136Z,15.60
2019-02-28T06:30:08.698Z,17.00
2019-02-28T06:31:06.128Z,16.80
2019-02-28T06:32:06.117Z,16.20
2019-02-28T06:33:06.090Z,17.60
2019-02-28T06:34:08.611Z,17.30
2019-02-28T06:35:06.082Z,16.60
2019-02-28T06:36:06.059Z,15.80
2019-02-28T06:37:06.117Z,15.70
2019-02-28T06:38:06.857Z,15.60
2019-02-28T06:39:06.023Z,16.30
2019-02-28T06:40:06.017Z,14.60
2019-02-28T06:41:07.694Z,14.90
2019-02-28T06:42:06.012Z,15.40
2019-02-28T06:43:05.989Z,14.20
2019-02-28T06:44:05.972Z,14.30
2019-02-28T06:45:05.959Z,15.60
2019-02-28T06:46:08.490Z,14.40
2019-02-28T06:47:05.983Z,14.60
2019-02-28T06:48:05.938Z,14.70
2019-02-28T06:49:07.207Z,14.70
2019-02-28T06:50:05.908Z,14.60
2019-02-28T06:51:05.893Z,13.70
2019-02-28T06:52:05.882Z,13.70
2019-02-28T06:53:05.884Z,13.70
2019-02-28T06:54:07.955Z,13.50
2019-02-28T06:55:05.867Z,13.30
2019-02-28T06:56:05.855Z,13.30
2019-02-28T06:57:05.838Z,14.00
2019-02-28T06:58:05.865Z,13.20
2019-02-28T06:59:05.826Z,13.80
2019-02-28T07:00:05.830Z,13.50
2019-02-28T07:01:05.796Z,13.60
2019-02-28T07:02:05.790Z,13.50
2019-02-28T07:03:05.800Z,13.70
2019-02-28T07:04:05.787Z,12.70
2019-02-28T07:05:05.759Z,14.00
2019-02-28T07:06:05.730Z,14.60
2019-02-28T07:07:07.374Z,14.30
2019-02-28T07:08:05.715Z,15.10
2019-02-28T07:09:05.711Z,16.20
2019-02-28T07:10:06.255Z,16.00
2019-02-28T07:11:05.706Z,15.00
2019-02-28T07:12:05.669Z,14.10
2019-02-28T07:13:05.715Z,14.90
2019-02-28T07:14:05.661Z,14.00
2019-02-28T07:15:05.679Z,14.50
2019-02-28T07:16:05.662Z,14.20
2019-02-28T07:17:07.751Z,14.30
2019-02-28T07:18:06.602Z,13.60
2019-02-28T07:19:05.595Z,14.60
2019-02-28T07:20:05.580Z,14.60
2019-02-28T07:21:07.878Z,13.80
2019-02-28T07:22:05.581Z,13.30
2019-02-28T07:23:05.548Z,13.60
2019-02-28T07:24:05.549Z,13.70
2019-02-28T07:25:05.521Z,14.60
2019-02-28T07:26:05.517Z,13.60
2019-02-28T07:27:05.530Z,13.20
2019-02-28T07:28:05.497Z,13.00
2019-02-28T07:29:11.062Z,13.60
2019-02-28T07:30:06.474Z,12.90
2019-02-28T07:31:05.460Z,13.50
2019-02-28T07:32:05.454Z,13.80
2019-02-28T07:33:09.575Z,13.30
2019-02-28T07:34:05.426Z,12.70
2019-02-28T07:35:05.418Z,13.10
2019-02-28T07:36:05.695Z,13.30
2019-02-28T07:37:05.390Z,12.90
2019-02-28T07:38:05.404Z,12.90
2019-02-28T07:39:05.385Z,12.80
2019-02-28T07:40:05.373Z,12.90
2019-02-28T07:41:05.352Z,12.70
2019-02-28T07:42:05.369Z,12.80
2019-02-28T07:43:05.337Z,12.50
2019-02-28T07:44:05.317Z,12.00
2019-02-28T07:45:05.315Z,11.70
2019-02-28T07:46:07.699Z,12.50
2019-02-28T07:47:05.297Z,11.80
2019-02-28T07:48:05.281Z,12.60
2019-02-28T07:49:05.265Z,12.30
2019-02-28T07:50:07.753Z,12.70
2019-02-28T07:51:06.233Z,12.30
2019-02-28T07:52:05.235Z,12.30
2019-02-28T07:53:08.426Z,12.90
2019-02-28T07:54:05.230Z,12.90
2019-02-28T07:55:05.205Z,12.40
2019-02-28T07:56:06.935Z,11.80
2019-02-28T07:57:05.188Z,12.20
2019-02-28T07:58:05.163Z,12.40
2019-02-28T07:59:05.562Z,11.00
2019-02-28T08:00:05.147Z,11.20
2019-02-28T08:01:05.140Z,11.10
2019-02-28T08:02:05.124Z,10.70
2019-02-28T08:03:05.111Z,10.00
2019-02-28T08:04:05.107Z,10.40
2019-02-28T08:05:05.311Z,9.90
2019-02-28T08:06:05.799Z,10.10
2019-02-28T08:07:05.061Z,9.20
2019-02-28T08:08:05.052Z,9.00
2019-02-28T08:09:05.527Z,8.50
2019-02-28T08:10:05.034Z,8.70
2019-02-28T08:11:05.016Z,8.80
2019-02-28T08:12:05.010Z,8.70
2019-02-28T08:13:04.997Z,8.70
2019-02-28T08:14:04.982Z,8.10
2019-02-28T08:15:04.992Z,8.50
2019-02-28T08:16:04.973Z,8.50
2019-02-28T08:17:05.478Z,8.70
2019-02-28T08:18:05.862Z,8.00
2019-02-28T08:19:04.928Z,8.30
2019-02-28T08:20:04.932Z,8.80
2019-02-28T08:21:05.356Z,7.80
2019-02-28T08:22:04.894Z,7.90
2019-02-28T08:23:04.909Z,8.10
2019-02-28T08:24:05.394Z,7.90
2019-02-28T08:25:07.816Z,8.50
2019-02-28T08:26:04.853Z,8.90
2019-02-28T08:27:04.853Z,8.10
2019-02-28T08:28:04.837Z,9.40
2019-02-28T08:29:07.837Z,9.90
2019-02-28T08:30:05.837Z,9.90
2019-02-28T08:31:04.802Z,10.00
2019-02-28T08:32:08.032Z,11.00
2019-02-28T08:33:04.787Z,9.70
2019-02-28T08:34:04.768Z,9.80
2019-02-28T08:35:04.787Z,9.60
2019-02-28T08:36:08.503Z,10.00
2019-02-28T08:37:05.744Z,9.10
2019-02-28T08:38:06.715Z,9.50
2019-02-28T08:39:06.070Z,9.70
2019-02-28T08:40:04.715Z,9.90
2019-02-28T08:41:06.463Z,10.00
2019-02-28T08:42:04.971Z,9.70
2019-02-28T08:43:04.669Z,9.50
2019-02-28T08:44:04.660Z,9.40
2019-02-28T08:45:04.653Z,9.40
2019-02-28T08:46:09.667Z,8.80
2019-02-28T08:47:05.638Z,9.80
2019-02-28T08:48:04.639Z,8.50
2019-02-28T08:49:07.232Z,8.90
2019-02-28T08:50:04.602Z,8.90
2019-02-28T08:51:04.589Z,8.40
2019-02-28T08:52:05.645Z,8.40
2019-02-28T08:53:04.566Z,9.20
2019-02-28T08:54:06.067Z,9.30
2019-02-28T08:55:07.041Z,9.00
2019-02-28T08:56:04.538Z,9.00
2019-02-28T08:57:04.527Z,8.50
2019-02-28T08:58:06.479Z,9.20
2019-02-28T08:59:11.597Z,8.90
2019-02-28T09:00:05.500Z,9.20
2019-02-28T09:01:05.354Z,9.60
2019-02-28T09:02:04.474Z,9.50
2019-02-28T09:03:04.483Z,9.40
2019-02-28T09:04:05.692Z,9.30
2019-02-28T09:05:04.452Z,9.90
2019-02-28T09:06:07.240Z,9.30
2019-02-28T09:07:04.417Z,9.10
2019-02-28T09:08:04.404Z,9.20
2019-02-28T09:09:04.406Z,9.30
2019-02-28T09:10:06.762Z,9.20
2019-02-28T09:11:05.381Z,9.00
2019-02-28T09:12:04.356Z,9.40
2019-02-28T09:13:07.758Z,9.70
2019-02-28T09:14:04.341Z,9.50
2019-02-28T09:15:04.327Z,9.70
2019-02-28T09:16:04.863Z,9.50
2019-02-28T09:17:04.318Z,9.50
2019-02-28T09:18:04.288Z,9.60
2019-02-28T09:19:04.285Z,10.30
2019-02-28T09:20:04.280Z,10.00
2019-02-28T09:21:04.264Z,10.00
2019-02-28T09:22:04.252Z,9.60
2019-02-28T09:23:06.255Z,10.20
2019-02-28T09:24:04.243Z,10.10
2019-02-28T09:25:04.215Z,10.80
2019-02-28T09:26:04.198Z,10.40
2019-02-28T09:27:04.952Z,11.10
2019-02-28T09:28:04.187Z,10.60
2019-02-28T09:29:04.187Z,10.70
2019-02-28T09:30:04.169Z,10.70
2019-02-28T09:31:04.954Z,10.30
2019-02-28T09:32:04.138Z,10.80
2019-02-28T09:33:04.129Z,11.10
2019-02-28T09:34:04.125Z,11.20
2019-02-28T09:35:06.059Z,11.70
2019-02-28T09:36:05.091Z,11.10
2019-02-28T09:37:04.083Z,11.20
2019-02-28T09:38:07.619Z,11.30
2019-02-28T09:39:05.071Z,11.60
2019-02-28T09:40:04.071Z,11.60
2019-02-28T09:41:04.541Z,11.70
2019-02-28T09:42:04.046Z,11.80
2019-02-28T09:43:04.021Z,11.60
2019-02-28T09:44:04.006Z,11.70
2019-02-28T09:45:07.652Z,12.00
2019-02-28T09:46:03.989Z,12.30
2019-02-28T09:47:03.969Z,11.70
2019-02-28T09:48:03.962Z,11.80
2019-02-28T09:49:05.563Z,11.40
2019-02-28T09:50:03.936Z,11.20
2019-02-28T09:51:03.951Z,11.80
2019-02-28T09:52:06.481Z,11.50
2019-02-28T09:53:03.912Z,12.30
2019-02-28T09:54:03.902Z,11.70
2019-02-28T09:55:03.876Z,11.70
2019-02-28T09:56:08.912Z,11.30
2019-02-28T09:57:04.856Z,11.50
2019-02-28T09:58:03.846Z,12.10
2019-02-28T09:59:03.971Z,11.50
2019-02-28T10:00:03.846Z,12.00
2019-02-28T10:01:03.817Z,11.60
2019-02-28T10:02:08.079Z,10.90
2019-02-28T10:03:03.802Z,11.80
2019-02-28T10:04:03.796Z,11.60
2019-02-28T10:05:06.591Z,11.40
2019-02-28T10:06:03.762Z,11.20
2019-02-28T10:07:03.742Z,11.50
2019-02-28T10:08:03.757Z,11.80
2019-02-28T10:09:03.723Z,11.80
2019-02-28T10:10:03.711Z,12.70
2019-02-28T10:11:03.712Z,11.80
2019-02-28T10:12:04.667Z,12.30
2019-02-28T10:13:03.680Z,12.10
2019-02-28T10:14:03.675Z,12.50
2019-02-28T10:15:07.254Z,12.40
2019-02-28T10:16:03.660Z,12.00
2019-02-28T10:17:03.660Z,12.00
2019-02-28T10:18:04.384Z,12.60
2019-02-28T10:19:05.194Z,12.20
2019-02-28T10:20:03.603Z,13.00
2019-02-28T10:21:03.592Z,16.30
2019-02-28T10:22:03.618Z,15.40
2019-02-28T10:23:03.588Z,15.20
2019-02-28T10:24:03.568Z,16.10
2019-02-28T10:25:06.525Z,16.90
2019-02-28T10:26:03.554Z,16.50
2019-02-28T10:27:03.626Z,16.20
2019-02-28T10:28:03.546Z,16.10
2019-02-28T10:29:04.503Z,16.30
2019-02-28T10:30:03.503Z,16.90
2019-02-28T10:31:03.497Z,16.30
2019-02-28T10:32:06.139Z,16.90
2019-02-28T10:33:04.480Z,16.40
2019-02-28T10:34:03.450Z,16.20
2019-02-28T10:35:03.447Z,17.50
2019-02-28T10:36:03.444Z,16.40
2019-02-28T10:37:04.359Z,17.00
2019-02-28T10:38:03.427Z,17.10
2019-02-28T10:39:05.867Z,16.90
2019-02-28T10:40:05.133Z,16.60
2019-02-28T10:41:03.425Z,17.00
2019-02-28T10:42:05.231Z,17.10
2019-02-28T10:43:03.379Z,16.80
2019-02-28T10:44:03.349Z,16.80
2019-02-28T10:45:03.588Z,17.20
2019-02-28T10:46:03.329Z,16.60
2019-02-28T10:47:03.319Z,16.90
2019-02-28T10:48:04.126Z,15.90
2019-02-28T10:49:03.310Z,16.40
2019-02-28T10:50:03.296Z,17.00
2019-02-28T10:51:12.623Z,16.40
2019-02-28T10:52:04.267Z,16.00
2019-02-28T10:53:05.621Z,16.60
2019-02-28T10:54:03.250Z,15.60
2019-02-28T10:55:03.229Z,16.70
2019-02-28T10:56:03.220Z,16.50
2019-02-28T10:57:05.954Z,16.50
2019-02-28T10:58:03.225Z,15.60
2019-02-28T10:59:03.181Z,15.30
2019-02-28T11:00:03.174Z,14.40
2019-02-28T11:01:07.709Z,15.20
2019-02-28T11:02:04.145Z,14.60
2019-02-28T11:03:03.156Z,14.50
2019-02-28T11:04:04.504Z,14.20
2019-02-28T11:05:03.117Z,13.80
2019-02-28T11:06:03.442Z,12.80
2019-02-28T11:07:03.230Z,13.40
2019-02-28T11:08:03.131Z,13.10
2019-02-28T11:09:03.130Z,13.00
2019-02-28T11:10:03.091Z,13.90
2019-02-28T11:11:03.048Z,13.90
2019-02-28T11:12:03.044Z,13.70
2019-02-28T11:13:03.034Z,13.40
2019-02-28T11:14:03.914Z,13.30
2019-02-28T11:15:03.045Z,13.60
2019-02-28T11:16:03.003Z,13.50
2019-02-28T11:17:02.987Z,13.80
2019-02-28T11:18:08.550Z,14.00
2019-02-28T11:19:03.964Z,13.90
2019-02-28T11:20:02.979Z,14.20
2019-02-28T11:21:02.966Z,13.90
2019-02-28T11:22:04.938Z,13.50
2019-02-28T11:23:02.922Z,13.80
2019-02-28T11:24:02.934Z,14.60
2019-02-28T11:25:02.914Z,13.70
2019-02-28T11:26:02.920Z,14.40
2019-02-28T11:27:02.957Z,13.40
2019-02-28T11:28:02.891Z,14.40
2019-02-28T11:29:03.848Z,13.50
2019-02-28T11:30:02.878Z,14.30
2019-02-28T11:31:02.883Z,14.70
2019-02-28T11:32:02.818Z,13.90
2019-02-28T11:33:04.514Z,14.40
2019-02-28T11:34:02.796Z,14.90
2019-02-28T11:35:02.792Z,14.10
2019-02-28T11:36:02.779Z,14.10
2019-02-28T11:37:05.475Z,14.40
2019-02-28T11:38:04.994Z,13.00
2019-02-28T11:39:02.764Z,14.10
2019-02-28T11:40:05.418Z,14.30
2019-02-28T11:41:03.720Z,15.10
2019-02-28T11:42:02.760Z,14.30
2019-02-28T11:43:03.857Z,13.60
2019-02-28T11:44:02.721Z,13.60
2019-02-28T11:45:02.674Z,13.90
2019-02-28T11:46:03.097Z,13.60
2019-02-28T11:47:02.669Z,13.20
2019-02-28T11:48:02.641Z,15.70
2019-02-28T11:49:02.650Z,14.20
2019-02-28T11:50:04.644Z,14.50
2019-02-28T11:51:02.619Z,14.00
2019-02-28T11:52:02.615Z,14.80
2019-02-28T11:53:05.776Z,14.10
2019-02-28T11:54:02.578Z,14.30
2019-02-28T11:55:02.558Z,14.20
2019-02-28T11:56:02.553Z,13.40
2019-02-28T11:57:03.355Z,12.40
2019-02-28T11:58:02.543Z,12.50
2019-02-28T11:59:02.528Z,12.80
2019-02-28T12:00:02.509Z,13.00
2019-02-28T12:01:02.504Z,11.80
2019-02-28T12:02:02.503Z,12.60
2019-02-28T12:03:02.489Z,12.80
2019-02-28T12:04:02.475Z,11.60
2019-02-28T12:05:02.449Z,12.80
2019-02-28T12:06:02.434Z,12.60
2019-02-28T12:07:02.433Z,12.70
2019-02-28T12:08:02.435Z,11.70
2019-02-28T12:09:02.412Z,12.10
2019-02-28T12:10:02.391Z,11.70
2019-02-28T12:11:02.885Z,12.60
2019-02-28T12:12:02.374Z,12.60
2019-02-28T12:13:02.378Z,12.50
2019-02-28T12:14:02.361Z,12.30
2019-02-28T12:15:02.764Z,12.50
2019-02-28T12:16:02.348Z,13.30
2019-02-28T12:17:02.320Z,13.10
2019-02-28T12:18:04.754Z,12.50
2019-02-28T12:19:02.340Z,12.60
2019-02-28T12:20:03.794Z,12.70
2019-02-28T12:21:04.876Z,12.20
2019-02-28T12:22:02.270Z,12.50
2019-02-28T12:23:02.256Z,12.40
2019-02-28T12:24:02.304Z,13.00
2019-02-28T12:25:04.585Z,13.00
2019-02-28T12:26:03.289Z,13.20
2019-02-28T12:27:04.103Z,13.30
2019-02-28T12:28:02.928Z,12.30
2019-02-28T12:29:02.199Z,13.30
2019-02-28T12:30:02.192Z,13.20
2019-02-28T12:31:02.204Z,13.00
2019-02-28T12:32:02.171Z,12.90
2019-02-28T12:33:02.154Z,13.40
2019-02-28T12:34:02.168Z,13.10
2019-02-28T12:35:02.502Z,12.90
2019-02-28T12:36:02.121Z,14.60
2019-02-28T12:37:02.103Z,13.70
2019-02-28T12:38:02.106Z,14.10
2019-02-28T12:39:02.317Z,13.40
2019-02-28T12:40:02.083Z,14.00
2019-02-28T12:41:02.067Z,14.20
2019-02-28T12:42:02.043Z,13.50
2019-02-28T12:43:02.065Z,14.40
2019-02-28T12:44:02.051Z,14.00
2019-02-28T12:45:02.027Z,14.10
2019-02-28T12:46:02.018Z,14.50
2019-02-28T12:47:03.324Z,13.20
2019-02-28T12:48:01.977Z,14.60
2019-02-28T12:49:01.980Z,15.20
2019-02-28T12:50:01.957Z,14.20
2019-02-28T12:51:02.292Z,13.90
2019-02-28T12:52:02.007Z,13.30
2019-02-28T12:53:01.938Z,14.20
2019-02-28T12:54:01.922Z,14.70
2019-02-28T12:55:03.974Z,14.90
2019-02-28T12:56:01.906Z,14.90
2019-02-28T12:57:01.884Z,16.10
2019-02-28T12:58:01.890Z,15.90
2019-02-28T12:59:01.878Z,16.20
2019-02-28T13:00:01.846Z,16.80